Aeroporto :
LOGIN :

Iscrizione | Disclaimer

   EN    FR    IT 

 










Sommario :    VFR   VFR Marginale   IFR   IFR Intensivo   IFR Molto Intensivo
Visibilità : 
Base nubi : 
>= 8 km
>= 3000ft
5 / 8 km
1000 / 3000 ft
1500m / 5 km
500 / 1000 ft
800 / 1500m
200 / 500 ft
< 800m
< 200 ft
Simboli :   Temporali  Nebbia  Neve Forte  Precipitazioni Forti  Vento > 20 kt
SIGMETs :   Varie  Temporali  Ghiacco  Turbolenza  Onda orograficha  Ceneri Vulcaniche






- Altitudine del aeroporto : 681 ft
- Codice IATA : LBA


EGNM - Leeds Bradford

ULTIMO METAR :
  • 180550Z 33007KT 300V360 9999 FEW012 SCT019 BKN027 04/03 Q1017

METARs OBSOLETI :
  • 180520Z 34007KT 9999 FEW017 BKN026 04/02 Q1017
  • 180450Z 33007KT 9999 FEW019 SCT026 04/02 Q1017
  • 180420Z 32008KT 9999 SCT020 03/02 Q1016
  • 180350Z 34010KT CAVOK 03/02 Q1016
  • 180320Z 34011KT CAVOK 03/01 Q1016

TAF TAF EGNM
Valido dal 18 a 06 ore il 19 a 06 ore UTC


180502Z 1806/1906 35006KT 9999 FEW030
TEMPO 1900/1906 8000
PROB30 1903/1906 4000 BR
ATIS : +44 113 250 9696 (x2489)



MetMap, La meteo Aeronautica in un colpo d'occhio ! - Copyright ORBIFLY Dicembre 2007 - Disclaimer

ORBIFLY MET'MAP TEAM :

Programmazione e sviluppo : Alexandra Zaïnal
Concezione e sviluppo : Baudouin d'Aumeries
Co-Programmazione e sviluppo : Marc-Olivier Méhu
Supporto tecnico e logistico : Manuel Goepfert
Aiuto per la traduzione : Arnaldo La Scala

Contatto : metmap@orbifly.com




FONTI E CREDITI :

   NOAA